EGSS

London Stansted Airport

London, United Kingdom
METAR EGSS 180020Z AUTO 34004KT 5000 HZ NCD 10/09 Q1025
Observed Flight Rules
Oct-18 @ 00:20 UTC (24 minutes ago) Marginal Visual Flight Rules
Wind Visibility Clouds Conditions
340° at 4 knots 5,005 meters
  • Clear skies
  • Haze
Temperatures Readings
Current 10°C / 50°F
Dewpoint 9°C / 48°F
Humidity 94%
Altimeter 30.27" Hg
Pressure 1025 hPa
Elevation 106
METAR EGSS 180020Z AUTO 34004KT 5000 HZ NCD 10/09 Q1025
Observed Flight Rules
Oct-18 @ 00:20 UTC
(24 minutes ago)
MVFR
Wind Visibility
340° at 4 knots 5,005 meters
Clouds
  • Clear skies
Conditions
  • Haze
Temperature Dewpoint
10°C / 50°F 9°C / 48°F
Humidity Altimeter Pressure
94% 30.27" Hg 1025 hPa